Time;durP1;ratioP1;P1;durP2;ratioP2;P2;SDS_P1;SDS_P2;PMS_P1;PMS_P2;Temp;Humidity;BMP_temperature;BMP_pressure;BME280_temperature;BME280_humidity;BME280_pressure;Samples;Min_cycle;Max_cycle;Signal;HPM_P1;HPM_P2
2022/10/21 00:01:16;;;;;;;43.95;27.02;;;11.70;99.90;;;;;;5026524;28;20125;-59
2022/10/21 00:03:42;;;;;;;47.60;28.30;;;11.60;99.90;;;;;;5027706;28;20056;-59
2022/10/21 00:06:09;;;;;;;51.05;27.27;;;11.80;99.90;;;;;;5027901;28;20567;-59
2022/10/21 00:08:34;;;;;;;49.80;28.50;;;11.60;99.90;;;;;;5022710;28;20041;-59
2022/10/21 00:11:02;;;;;;;42.60;27.77;;;11.60;99.90;;;;;;5028914;28;20036;-59
2022/10/21 00:13:30;;;;;;;45.78;28.48;;;13.70;99.90;;;;;;5028283;28;20084;-59
2022/10/21 00:16:06;;;;;;;43.65;27.02;;;11.50;99.90;;;;;;5022382;28;20404;-59
2022/10/21 00:18:33;;;;;;;45.35;27.67;;;11.70;99.90;;;;;;5023356;28;20056;-58
2022/10/21 00:20:59;;;;;;;43.65;28.20;;;11.80;99.90;;;;;;5027659;28;20045;-59
2022/10/21 00:23:25;;;;;;;43.97;27.20;;;11.90;99.90;;;;;;5028208;28;20134;-60
2022/10/21 00:25:58;;;;;;;46.75;28.67;;;11.90;99.90;;;;;;5029766;28;20044;-59
2022/10/21 00:28:24;;;;;;;54.75;29.45;;;11.90;99.90;;;;;;5029402;28;20641;-59
2022/10/21 00:30:50;;;;;;;45.90;27.45;;;11.90;99.90;;;;;;5026834;28;20041;-61
2022/10/21 00:33:16;;;;;;;49.03;28.20;;;11.90;99.90;;;;;;5027543;28;20048;-59
2022/10/21 00:35:41;;;;;;;46.30;28.17;;;11.90;99.90;;;;;;5029766;28;20052;-59
2022/10/21 00:38:07;;;;;;;48.10;28.40;;;12.00;99.90;;;;;;5026410;28;20034;-59
2022/10/21 00:40:33;;;;;;;43.90;28.00;;;11.90;99.90;;;;;;5027892;28;20052;-60
2022/10/21 00:42:59;;;;;;;48.03;26.85;;;11.80;99.90;;;;;;5026867;28;20414;-59
2022/10/21 00:45:28;;;;;;;40.47;26.75;;;11.90;99.90;;;;;;5026148;28;20603;-59
2022/10/21 00:48:03;;;;;;;43.95;27.35;;;11.70;99.90;;;;;;5025154;28;20037;-59
2022/10/21 00:50:52;;;;;;;45.80;28.38;;;11.80;99.90;;;;;;5025600;28;20033;-59
2022/10/21 00:53:18;;;;;;;46.40;28.38;;;11.90;99.90;;;;;;5028405;28;20049;-59
2022/10/21 00:55:51;;;;;;;37.72;25.50;;;12.00;99.90;;;;;;5028063;28;20057;-59
2022/10/21 00:58:21;;;;;;;42.45;26.98;;;13.70;99.90;;;;;;5028639;28;20045;-59
2022/10/21 01:00:47;;;;;;;47.85;26.45;;;11.70;99.90;;;;;;5025503;28;20663;-59
2022/10/21 01:03:13;;;;;;;40.72;25.38;;;11.90;99.90;;;;;;5027079;28;20402;-59
2022/10/21 01:05:41;;;;;;;43.13;27.67;;;13.40;99.90;;;;;;5029387;28;20067;-59
2022/10/21 01:08:06;;;;;;;44.55;25.95;;;11.90;99.90;;;;;;5027835;28;20040;-60
2022/10/21 01:10:32;;;;;;;44.70;27.20;;;11.80;99.90;;;;;;5024131;28;20037;-59
2022/10/21 01:13:53;;;;;;;43.03;27.05;;;11.90;99.90;;;;;;5027826;28;20211;-59
2022/10/21 01:16:28;;;;;;;43.30;26.83;;;11.80;99.90;;;;;;5048879;28;20199;-59
2022/10/21 01:19:14;;;;;;;44.65;27.20;;;11.80;99.90;;;;;;5049631;28;20117;-59
2022/10/21 01:21:53;;;;;;;43.83;27.15;;;11.80;99.90;;;;;;5033575;28;20177;-59
2022/10/21 01:24:49;;;;;;;44.70;27.48;;;11.70;99.90;;;;;;5025562;28;20049;-59
2022/10/21 01:27:27;;;;;;;41.97;26.98;;;12.10;99.90;;;;;;5023046;28;20052;-59
2022/10/21 01:30:28;;;;;;;50.10;28.50;;;11.70;99.90;;;;;;5022617;28;20033;-59
2022/10/21 01:33:05;;;;;;;44.78;27.30;;;11.70;99.90;;;;;;4992421;28;20065;-59
2022/10/21 01:35:36;;;;;;;46.55;28.23;;;11.80;99.90;;;;;;5024265;28;20053;-60
2022/10/21 01:38:20;;;;;;;45.78;28.67;;;11.60;99.90;;;;;;5026265;28;20046;-59
2022/10/21 01:41:03;;;;;;;42.85;26.88;;;11.80;99.90;;;;;;5017134;28;20041;-59
2022/10/21 01:44:01;;;;;;;38.10;25.73;;;12.50;99.90;;;;;;5021562;28;20056;-59
2022/10/21 01:46:35;;;;;;;38.28;25.67;;;11.90;99.90;;;;;;5027817;28;20171;-59
2022/10/21 01:49:06;;;;;;;39.58;25.98;;;11.60;99.90;;;;;;5025763;28;20072;-60
2022/10/21 01:51:34;;;;;;;43.95;27.30;;;11.60;99.90;;;;;;5025442;28;20460;-59
2022/10/21 01:54:06;;;;;;;60.33;31.50;;;11.90;99.90;;;;;;5027731;28;20041;-60
2022/10/21 01:56:33;;;;;;;42.30;27.38;;;11.60;99.90;;;;;;5026087;28;20472;-59
2022/10/21 01:59:01;;;;;;;46.28;27.83;;;11.70;99.90;;;;;;5025219;28;20048;-59
2022/10/21 02:01:27;;;;;;;50.22;29.15;;;11.70;99.90;;;;;;5023813;28;20057;-59
2022/10/21 02:03:57;;;;;;;51.80;28.38;;;12.00;99.90;;;;;;5023544;28;20452;-59
2022/10/21 02:06:24;;;;;;;46.83;27.73;;;11.80;99.90;;;;;;5025080;28;20037;-59
2022/10/21 02:08:50;;;;;;;46.20;28.90;;;11.70;99.90;;;;;;5027375;28;20414;-59
2022/10/21 02:11:17;;;;;;;43.70;26.50;;;11.90;99.90;;;;;;5025160;28;20041;-60
2022/10/21 02:13:57;;;;;;;41.92;27.00;;;11.70;99.90;;;;;;5027711;28;20085;-59
2022/10/21 02:16:29;;;;;;;46.08;28.05;;;11.90;99.90;;;;;;5025518;28;20045;-59
2022/10/21 02:18:57;;;;;;;42.80;27.23;;;11.80;99.90;;;;;;5025376;28;20288;-59
2022/10/21 02:21:25;;;;;;;44.83;27.52;;;11.80;99.90;;;;;;5025865;28;20113;-59
2022/10/21 02:23:56;;;;;;;46.25;26.58;;;12.00;99.90;;;;;;5027004;28;20041;-59
2022/10/21 02:26:24;;;;;;;42.95;27.90;;;11.80;99.90;;;;;;5025137;28;20177;-59
2022/10/21 02:28:52;;;;;;;47.25;29.40;;;11.80;99.90;;;;;;5023229;28;20093;-59
2022/10/21 02:31:23;;;;;;;44.22;27.52;;;12.60;99.90;;;;;;5030368;28;20068;-59
2022/10/21 02:34:14;;;;;;;46.75;28.25;;;12.70;99.90;;;;;;5028955;28;20053;-59
2022/10/21 02:37:00;;;;;;;43.03;27.63;;;12.00;99.90;;;;;;5028560;28;20055;-59
2022/10/21 02:39:37;;;;;;;54.22;28.58;;;12.10;99.90;;;;;;5100353;27;20125;-58
2022/10/21 02:42:08;;;;;;;56.67;30.70;;;12.00;99.90;;;;;;5024105;28;20554;-57
2022/10/21 02:44:33;;;;;;;45.17;26.33;;;12.10;99.90;;;;;;5028037;28;20037;-57
2022/10/21 02:46:59;;;;;;;44.00;23.88;;;14.10;99.90;;;;;;5027765;28;20048;-55
2022/10/21 02:49:25;;;;;;;43.78;22.92;;;12.30;99.90;;;;;;5027081;28;20147;-56
2022/10/21 02:51:51;;;;;;;35.05;21.55;;;12.40;99.90;;;;;;5030249;28;20136;-56
2022/10/21 02:54:17;;;;;;;40.60;23.85;;;13.70;99.90;;;;;;5030733;28;20041;-57
2022/10/21 02:56:42;;;;;;;49.42;24.40;;;12.40;99.90;;;;;;5031720;28;20037;-57
2022/10/21 02:59:08;;;;;;;43.25;21.65;;;14.90;99.90;;;;;;5028748;28;20160;-57
2022/10/21 03:01:34;;;;;;;46.33;23.52;;;13.30;99.90;;;;;;5028885;28;20044;-58
2022/10/21 03:04:00;;;;;;;38.22;21.02;;;12.70;99.90;;;;;;5029862;28;21838;-57
2022/10/21 03:06:26;;;;;;;54.40;25.30;;;12.80;99.90;;;;;;5027264;28;20041;-58
2022/10/21 03:08:51;;;;;;;36.20;19.95;;;12.70;99.90;;;;;;5031219;28;20093;-58
2022/10/21 03:11:17;;;;;;;40.60;20.73;;;12.70;99.90;;;;;;5026281;28;20307;-58
2022/10/21 03:13:43;;;;;;;36.33;20.38;;;13.00;99.90;;;;;;5030993;28;20499;-57
2022/10/21 03:16:09;;;;;;;50.97;22.70;;;12.90;99.90;;;;;;5028684;28;20574;-57
2022/10/21 03:18:34;;;;;;;33.90;20.70;;;12.70;99.90;;;;;;5028622;28;20041;-57
2022/10/21 03:21:00;;;;;;;41.42;23.05;;;12.70;99.90;;;;;;5028020;28;20065;-57
2022/10/21 03:23:26;;;;;;;45.55;22.40;;;13.00;99.90;;;;;;5027712;28;20071;-57
2022/10/21 03:25:51;;;;;;;42.35;22.52;;;12.90;99.90;;;;;;5029169;28;20140;-56
2022/10/21 03:28:17;;;;;;;46.85;24.23;;;13.40;99.90;;;;;;5028451;28;20055;-58
2022/10/21 03:30:43;;;;;;;47.50;24.95;;;12.80;99.90;;;;;;5026040;28;20573;-57
2022/10/21 03:33:08;;;;;;;44.53;26.02;;;14.90;99.90;;;;;;5027527;28;20466;-58
2022/10/21 03:35:34;;;;;;;56.60;28.13;;;12.70;99.90;;;;;;5031863;28;20076;-58
2022/10/21 03:38:00;;;;;;;50.03;27.55;;;12.80;99.90;;;;;;5026087;28;20044;-58
2022/10/21 03:40:29;;;;;;;55.10;29.77;;;12.60;99.90;;;;;;5027816;28;20037;-58
2022/10/21 03:42:58;;;;;;;51.00;27.38;;;12.70;99.90;;;;;;5028928;28;20045;-58
2022/10/21 03:45:24;;;;;;;57.75;29.23;;;12.80;99.90;;;;;;5027191;28;20041;-57
2022/10/21 03:47:51;;;;;;;92.32;32.95;;;12.70;99.90;;;;;;5027649;28;20097;-57
2022/10/21 03:50:17;;;;;;;67.78;29.58;;;14.30;99.90;;;;;;5030673;28;20123;-57
2022/10/21 03:52:43;;;;;;;65.28;31.02;;;12.60;99.90;;;;;;5025635;28;20753;-58
2022/10/21 03:55:09;;;;;;;67.38;30.88;;;14.20;99.90;;;;;;5028310;28;20044;-58
2022/10/21 03:57:35;;;;;;;52.08;28.45;;;12.50;99.90;;;;;;5024499;28;20103;-58
2022/10/21 04:00:01;;;;;;;66.93;30.88;;;12.40;99.90;;;;;;5028288;28;20045;-58
2022/10/21 04:02:27;;;;;;;51.20;27.80;;;12.70;99.90;;;;;;5027487;28;20032;-57
2022/10/21 04:04:52;;;;;;;53.17;29.67;;;13.00;99.90;;;;;;5029235;28;20129;-58
2022/10/21 04:07:18;;;;;;;51.08;28.20;;;12.50;99.90;;;;;;5028248;28;20049;-58
2022/10/21 04:09:44;;;;;;;60.55;28.75;;;12.40;99.90;;;;;;5001253;28;20571;-58
2022/10/21 04:12:09;;;;;;;62.03;30.55;;;12.60;99.90;;;;;;5029180;28;20067;-57
2022/10/21 04:14:35;;;;;;;53.20;30.20;;;12.50;99.90;;;;;;5029172;28;20353;-58
2022/10/21 04:17:01;;;;;;;58.35;30.42;;;12.30;99.90;;;;;;5028171;28;20099;-58
2022/10/21 04:19:26;;;;;;;53.50;29.35;;;12.60;99.90;;;;;;5028869;28;20454;-58
2022/10/21 04:21:52;;;;;;;53.00;29.85;;;12.50;99.90;;;;;;5028479;28;20097;-58
2022/10/21 04:24:18;;;;;;;87.47;33.33;;;12.40;99.90;;;;;;5024584;28;20169;-57
2022/10/21 04:26:44;;;;;;;53.67;29.35;;;12.30;99.90;;;;;;5026552;28;20113;-58
2022/10/21 04:29:10;;;;;;;74.50;31.73;;;12.20;99.90;;;;;;5026450;28;20045;-58
2022/10/21 04:31:36;;;;;;;57.47;29.85;;;12.50;99.90;;;;;;5028900;28;20088;-58
2022/10/21 04:34:01;;;;;;;55.03;30.00;;;12.40;99.90;;;;;;5030096;28;20144;-58
2022/10/21 04:36:27;;;;;;;53.28;29.23;;;13.20;99.90;;;;;;5028538;28;20043;-58
2022/10/21 04:38:53;;;;;;;77.57;34.60;;;12.40;99.90;;;;;;5029257;28;20112;-58
2022/10/21 04:41:19;;;;;;;76.20;34.05;;;12.40;99.90;;;;;;5026173;28;20048;-57
2022/10/21 04:43:44;;;;;;;83.45;33.17;;;12.20;99.90;;;;;;5025224;28;20053;-58
2022/10/21 04:46:13;;;;;;;53.63;30.08;;;12.20;99.90;;;;;;5028103;28;20037;-57
2022/10/21 04:48:39;;;;;;;60.63;30.58;;;12.10;99.90;;;;;;5026953;28;20083;-57
2022/10/21 04:51:05;;;;;;;54.15;28.95;;;12.20;99.90;;;;;;5028387;28;20161;-58
2022/10/21 04:53:31;;;;;;;90.90;35.08;;;12.20;99.90;;;;;;5024171;28;20056;-58
2022/10/21 04:55:57;;;;;;;53.75;29.48;;;14.30;99.90;;;;;;5027071;28;20053;-58
2022/10/21 04:58:23;;;;;;;67.28;32.00;;;12.30;99.90;;;;;;5026513;28;20391;-58
2022/10/21 05:00:50;;;;;;;63.45;31.17;;;12.20;99.90;;;;;;5026014;28;20037;-58
2022/10/21 05:03:16;;;;;;;70.47;32.45;;;13.80;99.90;;;;;;5027005;28;23536;-57
2022/10/21 05:05:42;;;;;;;66.90;30.70;;;12.10;99.90;;;;;;5025150;28;20051;-58
2022/10/21 05:08:08;;;;;;;55.38;31.33;;;12.10;99.90;;;;;;5027430;28;20307;-58
2022/10/21 05:10:33;;;;;;;73.05;32.95;;;12.10;99.90;;;;;;5029672;28;20042;-58
2022/10/21 05:12:59;;;;;;;64.53;31.98;;;12.10;99.90;;;;;;5024058;28;20054;-58
2022/10/21 05:15:25;;;;;;;65.35;30.85;;;12.00;99.90;;;;;;5026601;28;20041;-57
2022/10/21 05:17:52;;;;;;;67.50;31.52;;;12.10;99.90;;;;;;5026849;28;20033;-58
2022/10/21 05:20:18;;;;;;;63.22;30.52;;;13.90;99.90;;;;;;5028556;28;20452;-58
2022/10/21 05:22:44;;;;;;;67.82;31.70;;;12.10;99.90;;;;;;5027489;28;20045;-58
2022/10/21 05:25:10;;;;;;;62.30;31.45;;;11.90;99.90;;;;;;5027378;28;20398;-58
2022/10/21 05:27:35;;;;;;;95.10;35.35;;;12.00;99.90;;;;;;5027703;28;20060;-57
2022/10/21 05:30:03;;;;;;;91.82;35.63;;;12.00;99.90;;;;;;5027634;28;20524;-58
2022/10/21 05:32:28;;;;;;;60.80;31.40;;;12.10;99.90;;;;;;5028003;28;20045;-58
2022/10/21 05:34:54;;;;;;;82.22;35.63;;;12.00;99.90;;;;;;5025675;28;20056;-58
2022/10/21 05:37:20;;;;;;;81.68;34.92;;;12.10;99.90;;;;;;5026126;28;20045;-58
2022/10/21 05:39:45;;;;;;;81.70;33.70;;;12.10;99.90;;;;;;5027502;28;20073;-57
2022/10/21 05:42:11;;;;;;;75.97;35.58;;;11.70;99.90;;;;;;5024700;28;20048;-58
2022/10/21 05:44:37;;;;;;;66.60;32.45;;;14.20;99.90;;;;;;5027007;28;20052;-58
2022/10/21 05:47:03;;;;;;;82.22;37.63;;;11.90;99.90;;;;;;5025726;28;20485;-58
2022/10/21 05:49:29;;;;;;;73.03;33.85;;;12.00;99.90;;;;;;5025495;28;20060;-58
2022/10/21 05:51:54;;;;;;;67.60;35.92;;;12.00;99.90;;;;;;5026558;28;20897;-58
2022/10/21 05:54:20;;;;;;;76.70;34.85;;;12.00;99.90;;;;;;5025000;28;20121;-58
2022/10/21 05:56:47;;;;;;;73.13;34.45;;;12.10;99.90;;;;;;5024822;28;20054;-58
2022/10/21 05:59:13;;;;;;;77.68;35.72;;;12.20;99.90;;;;;;5026867;28;20144;-59
2022/10/21 06:01:39;;;;;;;75.78;36.85;;;12.10;99.90;;;;;;5027380;28;20105;-57
2022/10/21 06:04:06;;;;;;;71.20;34.13;;;12.10;99.90;;;;;;5026185;28;20041;-58
2022/10/21 06:06:32;;;;;;;74.82;35.33;;;12.00;99.90;;;;;;5027947;28;20094;-58
2022/10/21 06:08:58;;;;;;;89.53;36.88;;;12.20;99.90;;;;;;5030586;28;20041;-58
2022/10/21 06:11:23;;;;;;;87.30;38.22;;;12.00;99.90;;;;;;5030424;28;20066;-58
2022/10/21 06:13:49;;;;;;;72.53;35.17;;;12.10;99.90;;;;;;5029654;28;20120;-58
2022/10/21 06:16:15;;;;;;;89.15;38.08;;;12.50;99.90;;;;;;5025869;28;20049;-58
2022/10/21 06:18:42;;;;;;;79.93;37.50;;;13.80;99.90;;;;;;5030707;28;20094;-57
2022/10/21 06:21:08;;;;;;;87.15;38.40;;;12.00;99.90;;;;;;5029547;28;20048;-58
2022/10/21 06:23:34;;;;;;;81.90;38.08;;;12.20;99.90;;;;;;5026709;28;20056;-57
2022/10/21 06:26:06;;;;;;;74.32;35.58;;;12.20;99.90;;;;;;5028786;28;20045;-58
2022/10/21 06:28:35;;;;;;;104.85;41.90;;;12.30;99.90;;;;;;5029302;28;20037;-58
2022/10/21 06:31:02;;;;;;;71.55;34.90;;;12.20;99.90;;;;;;5031512;28;20698;-58
2022/10/21 06:33:27;;;;;;;99.40;41.67;;;12.20;99.90;;;;;;5028096;28;20040;-57
2022/10/21 06:35:54;;;;;;;102.75;42.53;;;14.40;99.90;;;;;;5027119;28;20060;-58
2022/10/21 06:38:20;;;;;;;87.50;39.15;;;12.20;99.90;;;;;;5026019;28;20045;-58
2022/10/21 06:40:47;;;;;;;90.55;39.80;;;12.40;99.90;;;;;;5030233;28;20048;-58
2022/10/21 06:43:14;;;;;;;91.13;39.92;;;12.30;99.90;;;;;;5024188;28;20049;-58
2022/10/21 06:45:40;;;;;;;84.55;39.05;;;12.30;99.90;;;;;;5028157;28;20506;-58
2022/10/21 06:48:06;;;;;;;103.53;42.28;;;12.80;99.90;;;;;;5025514;28;20048;-59
2022/10/21 06:50:31;;;;;;;88.70;40.25;;;12.50;99.90;;;;;;5029190;28;20107;-58
2022/10/21 06:52:57;;;;;;;88.05;41.08;;;12.40;99.90;;;;;;5029137;28;20044;-57
2022/10/21 06:55:23;;;;;;;102.90;43.03;;;12.70;99.90;;;;;;5029764;28;20041;-58
2022/10/21 06:57:49;;;;;;;92.60;39.45;;;12.50;99.90;;;;;;5028100;28;20098;-58
2022/10/21 07:00:15;;;;;;;92.68;40.45;;;12.50;99.90;;;;;;5026775;28;20037;-59
2022/10/21 07:02:41;;;;;;;83.93;38.95;;;12.40;99.90;;;;;;5025858;28;20056;-58
2022/10/21 07:05:07;;;;;;;91.15;40.17;;;12.80;99.90;;;;;;5029173;28;20045;-57
2022/10/21 07:07:34;;;;;;;92.30;38.60;;;12.50;99.90;;;;;;5029002;28;20059;-58
2022/10/21 07:09:59;;;;;;;84.30;38.38;;;12.50;99.90;;;;;;5027674;28;20037;-58
2022/10/21 07:12:27;;;;;;;80.68;37.78;;;12.40;99.90;;;;;;5026221;28;20579;-58
2022/10/21 07:14:53;;;;;;;84.90;37.08;;;12.60;99.90;;;;;;5025086;28;20098;-58
2022/10/21 07:17:19;;;;;;;96.10;39.85;;;12.60;99.90;;;;;;5029427;28;20052;-58
2022/10/21 07:19:45;;;;;;;74.68;37.03;;;13.10;99.90;;;;;;5026132;28;20041;-58
2022/10/21 07:22:13;;;;;;;80.57;36.05;;;12.70;99.90;;;;;;5030183;28;20067;-58
2022/10/21 07:24:39;;;;;;;66.95;34.28;;;13.70;99.90;;;;;;5025560;28;20045;-58
2022/10/21 07:27:05;;;;;;;78.07;35.60;;;12.80;99.90;;;;;;5025356;28;20142;-57
2022/10/21 07:29:30;;;;;;;67.32;33.28;;;12.80;99.90;;;;;;5030005;28;20081;-58
2022/10/21 07:31:56;;;;;;;69.57;32.92;;;13.40;99.90;;;;;;5026244;28;20704;-58
2022/10/21 07:34:23;;;;;;;91.22;37.03;;;12.80;99.90;;;;;;5025585;28;20402;-58
2022/10/21 07:36:51;;;;;;;56.75;30.52;;;12.60;99.90;;;;;;5027527;28;20472;-58
2022/10/21 07:39:21;;;;;;;57.13;30.65;;;12.60;99.90;;;;;;5024907;28;20043;-58
2022/10/21 07:41:52;;;;;;;59.90;31.17;;;12.60;99.90;;;;;;5024964;28;20041;-58
2022/10/21 07:44:20;;;;;;;72.80;33.92;;;12.70;99.90;;;;;;5028740;28;20121;-57
2022/10/21 07:46:47;;;;;;;54.17;30.08;;;14.30;99.90;;;;;;5024548;28;20044;-58
2022/10/21 07:49:14;;;;;;;61.28;31.08;;;12.50;99.90;;;;;;5023713;28;20057;-58
2022/10/21 07:51:40;;;;;;;56.40;29.70;;;14.80;99.90;;;;;;5027592;28;20399;-58
2022/10/21 07:54:06;;;;;;;52.60;28.35;;;12.70;99.90;;;;;;5012038;28;20091;-58
2022/10/21 07:56:34;;;;;;;60.20;30.50;;;14.30;99.90;;;;;;5028135;28;20057;-58
2022/10/21 07:59:01;;;;;;;64.50;31.75;;;12.60;99.90;;;;;;5027822;28;20624;-58
2022/10/21 08:01:27;;;;;;;46.80;27.50;;;12.70;99.90;;;;;;5024762;28;20605;-58
2022/10/21 08:03:54;;;;;;;65.85;31.30;;;13.00;99.90;;;;;;5027225;28;20052;-57
2022/10/21 08:06:22;;;;;;;44.60;28.40;;;12.60;99.90;;;;;;5026866;28;20056;-57
2022/10/21 08:08:47;;;;;;;51.83;28.23;;;14.00;99.90;;;;;;5028430;28;20508;-58
2022/10/21 08:11:22;;;;;;;63.38;30.00;;;14.20;99.90;;;;;;5026572;28;20034;-58
2022/10/21 08:13:47;;;;;;;52.17;28.88;;;12.70;99.90;;;;;;5029183;28;20045;-58
2022/10/21 08:16:13;;;;;;;49.47;28.58;;;12.80;99.90;;;;;;5027911;28;20084;-58
2022/10/21 08:18:39;;;;;;;49.15;26.63;;;12.70;99.90;;;;;;5027932;28;20057;-58
2022/10/21 08:21:05;;;;;;;41.30;26.05;;;12.80;99.90;;;;;;5028557;28;20077;-58
2022/10/21 08:23:31;;;;;;;48.90;27.02;;;12.60;99.90;;;;;;5027012;28;20033;-58
2022/10/21 08:25:59;;;;;;;44.70;27.02;;;12.80;99.90;;;;;;5029172;28;20080;-58
2022/10/21 08:28:27;;;;;;;45.60;25.67;;;12.80;99.90;;;;;;5025103;28;20036;-59
2022/10/21 08:31:00;;;;;;;64.13;30.63;;;14.80;99.90;;;;;;5029820;28;20279;-58
2022/10/21 08:33:26;;;;;;;53.53;28.25;;;12.80;99.90;;;;;;5027980;28;20052;-58
2022/10/21 08:35:51;;;;;;;55.22;29.10;;;13.70;99.90;;;;;;5024898;28;20053;-58
2022/10/21 08:38:17;;;;;;;41.97;25.10;;;12.80;99.90;;;;;;5025637;28;20037;-58
2022/10/21 08:40:48;;;;;;;43.50;25.30;;;13.10;99.90;;;;;;5025921;28;20039;-58
2022/10/21 08:43:21;;;;;;;45.50;26.77;;;13.20;99.90;;;;;;5021501;28;20233;-57
2022/10/21 08:45:53;;;;;;;44.22;24.48;;;13.20;99.90;;;;;;5026068;28;20059;-58
2022/10/21 08:48:29;;;;;;;42.20;26.77;;;13.30;99.90;;;;;;5025722;28;20887;-58
2022/10/21 08:50:57;;;;;;;45.53;26.45;;;13.30;99.90;;;;;;5024187;28;20122;-58
2022/10/21 08:53:41;;;;;;;45.50;25.92;;;13.30;99.90;;;;;;5028460;28;20052;-58
2022/10/21 08:56:15;;;;;;;37.15;24.20;;;13.50;99.90;;;;;;5025683;28;20048;-58
2022/10/21 08:58:43;;;;;;;37.85;25.30;;;13.40;99.90;;;;;;5028968;28;20395;-58
2022/10/21 09:01:22;;;;;;;40.58;25.15;;;13.90;99.90;;;;;;5023533;28;20045;-58
2022/10/21 09:04:19;;;;;;;29.73;21.90;;;13.80;99.90;;;;;;5025872;28;20108;-58
2022/10/21 09:07:25;;;;;;;35.75;23.05;;;15.60;99.90;;;;;;5022804;28;20041;-57
2022/10/21 09:09:55;;;;;;;37.15;23.80;;;14.80;99.90;;;;;;5030437;28;20052;-58
2022/10/21 09:12:50;;;;;;;33.75;23.73;;;13.90;99.90;;;;;;5025954;28;20064;-58
2022/10/21 09:15:31;;;;;;;38.60;22.77;;;14.20;99.90;;;;;;5024766;28;20600;-58
2022/10/21 09:18:27;;;;;;;34.85;21.23;;;14.40;99.90;;;;;;5023700;28;20052;-58
2022/10/21 09:21:02;;;;;;;35.83;21.27;;;14.20;99.90;;;;;;5026153;28;20033;-58
2022/10/21 09:23:51;;;;;;;25.33;18.70;;;14.40;99.90;;;;;;5024675;28;20410;-58
2022/10/21 09:26:37;;;;;;;29.55;19.83;;;14.60;99.90;;;;;;5025941;28;20708;-58
2022/10/21 09:29:25;;;;;;;29.23;19.15;;;14.40;99.90;;;;;;5025436;28;20128;-58
2022/10/21 09:31:51;;;;;;;29.98;19.33;;;14.70;99.90;;;;;;5023010;28;20579;-58
2022/10/21 09:34:49;;;;;;;26.58;18.27;;;14.80;99.90;;;;;;5027056;28;20053;-58
2022/10/21 09:37:41;;;;;;;29.60;18.42;;;14.90;99.90;;;;;;5010538;28;20117;-58
2022/10/21 09:40:18;;;;;;;27.17;17.50;;;14.80;99.90;;;;;;5034765;28;20415;-58
2022/10/21 09:42:44;;;;;;;23.20;17.33;;;15.00;99.90;;;;;;5027361;28;21206;-57
2022/10/21 09:45:39;;;;;;;29.60;17.88;;;14.90;99.90;;;;;;5031427;28;20045;-59
2022/10/21 09:48:13;;;;;;;24.83;16.50;;;15.00;99.90;;;;;;5029677;28;20097;-59
2022/10/21 09:50:39;;;;;;;30.00;17.27;;;15.10;99.90;;;;;;5028917;28;20037;-58
2022/10/21 09:53:20;;;;;;;25.35;16.92;;;15.80;99.90;;;;;;5030057;28;20528;-59
2022/10/21 09:55:54;;;;;;;27.60;16.67;;;15.20;99.90;;;;;;5027546;28;20041;-59
2022/10/21 09:58:47;;;;;;;24.48;16.42;;;15.10;99.90;;;;;;5027539;28;20058;-59
2022/10/21 10:01:18;;;;;;;22.80;16.52;;;15.10;99.90;;;;;;5034640;28;20049;-59
2022/10/21 10:03:50;;;;;;;25.33;16.02;;;15.10;99.90;;;;;;5027727;28;20073;-59
2022/10/21 10:06:34;;;;;;;24.40;16.85;;;15.10;99.90;;;;;;5026343;28;20068;-58
2022/10/21 10:09:27;;;;;;;23.98;16.15;;;15.10;99.90;;;;;;5029247;28;20048;-58
2022/10/21 10:11:59;;;;;;;21.17;14.48;;;15.20;99.90;;;;;;5029616;28;20049;-59
2022/10/21 10:14:39;;;;;;;24.13;14.68;;;15.30;99.90;;;;;;5028228;28;20067;-59
2022/10/21 10:17:36;;;;;;;20.90;14.38;;;15.30;99.90;;;;;;5026518;28;20053;-59
2022/10/21 10:20:07;;;;;;;19.35;13.90;;;15.40;99.90;;;;;;5025531;28;20098;-59
2022/10/21 10:22:57;;;;;;;22.77;13.43;;;15.50;99.90;;;;;;5030405;28;20048;-59
2022/10/21 10:25:27;;;;;;;24.05;13.98;;;15.70;99.90;;;;;;5018175;28;20056;-59
2022/10/21 10:28:00;;;;;;;22.77;13.35;;;15.60;99.90;;;;;;5030342;28;20387;-59
2022/10/21 10:30:46;;;;;;;24.20;12.80;;;15.90;99.90;;;;;;5029205;28;20041;-59
2022/10/21 10:33:17;;;;;;;23.70;12.77;;;15.60;99.90;;;;;;5025814;28;20044;-59
2022/10/21 10:35:56;;;;;;;16.75;11.38;;;15.70;99.90;;;;;;5027093;28;20080;-59
2022/10/21 10:38:52;;;;;;;19.80;10.45;;;15.60;99.90;;;;;;5027461;28;20592;-59
2022/10/21 10:41:18;;;;;;;16.13;10.73;;;15.70;99.90;;;;;;5028320;28;20033;-58
2022/10/21 10:43:50;;;;;;;21.95;12.02;;;15.80;99.90;;;;;;5026752;28;20044;-58
2022/10/21 10:46:28;;;;;;;17.63;10.68;;;15.80;99.90;;;;;;5027649;28;20065;-60
2022/10/21 10:48:56;;;;;;;18.38;10.77;;;15.70;99.90;;;;;;5025142;28;20069;-58
2022/10/21 10:51:24;;;;;;;17.05;11.25;;;16.00;99.90;;;;;;5023462;28;20176;-59
2022/10/21 10:54:16;;;;;;;16.88;10.15;;;15.80;99.90;;;;;;5027417;28;20128;-59
2022/10/21 10:56:51;;;;;;;18.25;10.35;;;16.00;99.90;;;;;;5029391;28;20037;-59
2022/10/21 10:59:22;;;;;;;13.90;9.65;;;16.00;99.90;;;;;;5025934;28;20102;-59
2022/10/21 11:02:11;;;;;;;14.05;9.70;;;16.00;99.90;;;;;;5030505;28;20047;-59
2022/10/21 11:04:45;;;;;;;16.27;10.98;;;16.00;99.90;;;;;;5028413;28;20867;-59
2022/10/21 11:07:36;;;;;;;16.50;9.30;;;16.00;99.90;;;;;;5028882;28;20040;-58
2022/10/21 11:10:24;;;;;;;12.68;9.00;;;15.80;99.90;;;;;;5026051;28;20452;-59
2022/10/21 11:12:51;;;;;;;15.63;9.35;;;15.90;99.90;;;;;;5028223;28;20043;-59
2022/10/21 11:15:18;;;;;;;13.60;8.82;;;15.70;99.90;;;;;;5030107;28;20056;-59
2022/10/21 11:17:58;;;;;;;16.90;9.95;;;15.90;99.90;;;;;;5029840;28;20559;-58
2022/10/21 11:20:47;;;;;;;13.95;9.57;;;15.80;99.90;;;;;;5027102;28;20637;-59
2022/10/21 11:23:27;;;;;;;13.77;9.07;;;16.00;99.90;;;;;;5027006;28;20186;-58
2022/10/21 11:26:05;;;;;;;16.25;9.15;;;16.00;99.90;;;;;;5028658;28;20415;-58
2022/10/21 11:28:43;;;;;;;18.88;10.02;;;15.90;99.90;;;;;;5027114;28;20557;-58
2022/10/21 11:31:27;;;;;;;17.52;10.10;;;16.00;99.90;;;;;;5024880;28;20398;-58
2022/10/21 11:34:00;;;;;;;15.00;10.15;;;16.00;99.90;;;;;;5025716;28;20049;-58
2022/10/21 11:36:41;;;;;;;16.55;9.93;;;16.10;99.90;;;;;;5026672;28;20583;-58
2022/10/21 11:39:37;;;;;;;17.13;9.60;;;16.20;99.90;;;;;;5025452;28;20033;-58
2022/10/21 11:42:27;;;;;;;17.10;10.20;;;16.10;99.90;;;;;;5026043;28;20045;-58
2022/10/21 11:45:27;;;;;;;15.38;9.90;;;16.10;99.90;;;;;;5026082;28;20048;-59
2022/10/21 11:47:56;;;;;;;17.98;9.63;;;16.20;99.90;;;;;;5026089;28;20041;-58
2022/10/21 11:50:40;;;;;;;17.58;9.45;;;16.00;99.90;;;;;;5028126;28;20048;-58
2022/10/21 11:53:38;;;;;;;16.02;10.15;;;16.10;99.90;;;;;;5028408;28;20049;-58
2022/10/21 11:56:38;;;;;;;15.25;9.25;;;16.10;99.90;;;;;;5025105;28;20125;-58
2022/10/21 11:59:13;;;;;;;17.25;9.10;;;16.00;99.90;;;;;;5025344;28;20052;-58
2022/10/21 12:01:49;;;;;;;15.88;8.75;;;16.10;99.90;;;;;;5026195;28;20049;-58
2022/10/21 12:04:45;;;;;;;12.65;8.27;;;16.20;99.90;;;;;;5027970;28;20088;-58
2022/10/21 12:07:15;;;;;;;15.02;8.35;;;16.10;99.90;;;;;;5028189;28;20041;-58
2022/10/21 12:09:45;;;;;;;15.02;8.45;;;16.20;99.90;;;;;;5025449;28;20052;-58
2022/10/21 12:12:13;;;;;;;14.65;8.70;;;16.20;99.90;;;;;;5027390;28;20029;-58
2022/10/21 12:14:53;;;;;;;13.57;8.65;;;16.10;99.90;;;;;;5027861;28;20056;-58
2022/10/21 12:17:21;;;;;;;18.02;8.88;;;16.10;99.90;;;;;;5026795;28;20044;-58
2022/10/21 12:20:02;;;;;;;11.65;7.22;;;16.30;99.90;;;;;;5026963;28;20041;-58
2022/10/21 12:22:30;;;;;;;15.63;7.13;;;16.30;99.90;;;;;;5025515;28;20537;-58
2022/10/21 12:25:07;;;;;;;11.27;7.38;;;16.30;99.90;;;;;;5025481;28;20579;-58
2022/10/21 12:27:57;;;;;;;13.55;7.00;;;16.30;99.90;;;;;;5027178;28;20499;-58
2022/10/21 12:30:49;;;;;;;16.75;7.95;;;16.20;99.90;;;;;;5026122;28;20775;-58
2022/10/21 12:33:18;;;;;;;16.00;7.40;;;16.30;99.90;;;;;;5024502;28;20525;-58
2022/10/21 12:35:51;;;;;;;15.98;7.22;;;16.30;99.90;;;;;;5026158;28;20046;-59
2022/10/21 12:38:57;;;;;;;12.20;7.25;;;16.00;99.90;;;;;;5023586;28;20118;-58
2022/10/21 12:41:23;;;;;;;14.05;7.30;;;16.00;99.90;;;;;;5096529;27;20045;-58
2022/10/21 12:44:03;;;;;;;12.88;7.15;;;16.00;99.90;;;;;;5023160;28;20450;-58
2022/10/21 12:46:32;;;;;;;12.95;7.43;;;15.90;99.90;;;;;;5024939;28;20096;-59
2022/10/21 12:49:25;;;;;;;24.35;8.63;;;16.10;99.90;;;;;;5026076;28;20141;-58
2022/10/21 12:52:10;;;;;;;16.42;7.78;;;15.90;99.90;;;;;;5024095;28;20053;-58